Time;durP1;ratioP1;P1;durP2;ratioP2;P2;SDS_P1;SDS_P2;PMS_P1;PMS_P2;Temp;Humidity;BMP_temperature;BMP_pressure;BME280_temperature;BME280_humidity;BME280_pressure;Samples;Min_cycle;Max_cycle;Signal;HPM_P1;HPM_P2
2022/09/30 00:01:53;;;;;;;19.50;7.80;;;;;;;9.16;100.00;96793.55;110232;1248;67515;-81
2022/09/30 00:04:24;;;;;;;10.90;6.30;;;;;;;9.11;100.00;96789.92;110215;1247;69414;-79
2022/09/30 00:06:55;;;;;;;8.20;6.50;;;;;;;9.07;100.00;96789.00;110381;1245;59732;-80
2022/09/30 00:09:24;;;;;;;6.60;5.10;;;;;;;9.06;100.00;96790.89;110360;1245;59712;-78
2022/09/30 00:11:53;;;;;;;6.20;4.60;;;;;;;9.02;100.00;96792.35;110336;1246;70606;-79
2022/09/30 00:14:23;;;;;;;7.60;4.60;;;;;;;8.97;100.00;96793.08;110396;1245;69335;-79
2022/09/30 00:16:53;;;;;;;8.90;5.90;;;;;;;8.91;100.00;96789.02;110399;1245;68698;-78
2022/09/30 00:19:23;;;;;;;7.00;4.70;;;;;;;8.91;100.00;96796.51;110397;1245;59711;-79
2022/09/30 00:21:52;;;;;;;10.90;6.20;;;;;;;8.91;100.00;96801.02;110679;1245;59672;-78
2022/09/30 00:24:21;;;;;;;8.80;5.30;;;;;;;8.92;100.00;96804.08;110339;1246;70760;-80
2022/09/30 00:26:50;;;;;;;9.40;6.30;;;;;;;8.94;100.00;96807.92;110347;1247;68129;-81
2022/09/30 00:29:18;;;;;;;7.00;5.00;;;;;;;8.94;100.00;96807.94;110302;1247;69342;-79
2022/09/30 00:31:47;;;;;;;10.70;7.00;;;;;;;8.95;100.00;96802.32;110379;1247;59748;-80
2022/09/30 00:34:17;;;;;;;12.90;8.80;;;;;;;8.99;100.00;96803.02;110595;1247;59690;-79
2022/09/30 00:36:52;;;;;;;19.30;8.00;;;;;;;8.99;100.00;96804.61;111002;1247;70720;-79
2022/09/30 00:39:23;;;;;;;7.10;5.50;;;;;;;8.96;100.00;96805.52;110362;1247;68547;-79
2022/09/30 00:42:05;;;;;;;8.80;7.20;;;;;;;8.92;100.00;96804.98;110424;1247;68530;-80
2022/09/30 00:44:50;;;;;;;11.70;7.20;;;;;;;8.88;100.00;96804.73;110549;1245;59746;-79
2022/09/30 00:47:49;;;;;;;22.40;8.00;;;;;;;8.86;100.00;96805.25;110522;1247;59796;-79
2022/09/30 00:50:41;;;;;;;65.70;11.70;;;;;;;8.84;100.00;96806.81;110432;1245;70802;-80
2022/09/30 00:53:34;;;;;;;26.80;8.70;;;;;;;8.82;100.00;96813.69;110379;1245;68564;-78
2022/09/30 00:56:11;;;;;;;15.90;6.80;;;;;;;8.81;100.00;96814.84;110406;1245;68581;-79
2022/09/30 00:58:47;;;;;;;18.00;5.80;;;;;;;8.81;100.00;96814.99;110313;1247;60175;-78
2022/09/30 01:01:16;;;;;;;8.20;5.00;;;;;;;8.82;100.00;96814.09;110272;1248;59679;-80
2022/09/30 01:03:58;;;;;;;9.40;5.20;;;;;;;8.81;100.00;96817.94;110433;1247;70715;-78
2022/09/30 01:06:27;;;;;;;15.90;6.80;;;;;;;8.80;100.00;96821.84;110259;1247;67714;-79
2022/09/30 01:08:59;;;;;;;21.70;7.20;;;;;;;8.78;100.00;96820.30;110297;1248;68666;-79
2022/09/30 01:11:29;;;;;;;17.40;6.60;;;;;;;8.77;100.00;96820.19;110384;1247;59667;-79
2022/09/30 01:14:04;;;;;;;12.70;5.80;;;;;;;8.76;100.00;96814.89;110539;1245;59669;-78
2022/09/30 01:17:13;;;;;;;10.80;5.90;;;;;;;8.76;100.00;96810.53;110441;1247;70784;-78
2022/09/30 01:19:47;;;;;;;5.70;3.90;;;;;;;8.74;100.00;96813.25;110476;1245;69672;-78
2022/09/30 01:22:53;;;;;;;8.50;6.20;;;;;;;8.73;100.00;96806.89;110521;1245;68611;-78
2022/09/30 01:26:00;;;;;;;9.60;6.20;;;;;;;8.73;100.00;96804.48;110395;1247;59770;-81
2022/09/30 01:28:35;;;;;;;13.60;6.80;;;;;;;8.70;100.00;96807.84;110310;1247;59723;-81
2022/09/30 01:31:12;;;;;;;10.90;6.70;;;;;;;8.69;100.00;96811.23;110332;1246;70599;-81
2022/09/30 01:33:44;;;;;;;11.20;5.10;;;;;;;8.66;100.00;96809.98;110507;1247;68665;-78
2022/09/30 01:36:42;;;;;;;6.90;4.60;;;;;;;8.65;100.00;96805.41;110436;1245;68552;-78
2022/09/30 01:39:32;;;;;;;13.20;5.60;;;;;;;8.64;100.00;96799.75;110549;1245;59742;-78
2022/09/30 01:42:34;;;;;;;11.20;6.80;;;;;;;8.59;100.00;96805.84;110538;1245;59679;-79
2022/09/30 01:45:15;;;;;;;8.20;6.00;;;;;;;8.55;100.00;96818.86;110701;1245;71367;-78
2022/09/30 01:47:46;;;;;;;10.70;6.90;;;;;;;8.50;100.00;96821.66;110494;1245;68919;-80
2022/09/30 01:51:09;;;;;;;11.50;5.70;;;;;;;8.43;100.00;96820.09;110656;1246;68617;-79
2022/09/30 01:54:08;;;;;;;9.20;4.70;;;;;;;8.36;100.00;96817.95;110071;1246;59670;-79
2022/09/30 01:56:43;;;;;;;35.00;5.90;;;;;;;8.32;100.00;96824.87;110502;1246;59671;-79
2022/09/30 01:59:15;;;;;;;9.60;4.80;;;;;;;8.28;100.00;96821.53;110467;1247;71524;-79
2022/09/30 02:02:14;;;;;;;5.30;4.50;;;;;;;8.23;100.00;96820.30;110456;1247;68594;-78
2022/09/30 02:04:49;;;;;;;36.90;7.00;;;;;;;8.19;100.00;96820.27;110435;1245;69377;-78
2022/09/30 02:07:50;;;;;;;8.10;5.90;;;;;;;8.15;100.00;96818.23;110529;1247;59760;-78
2022/09/30 02:10:34;;;;;;;7.70;4.70;;;;;;;8.12;100.00;96810.19;110237;1247;59811;-77
2022/09/30 02:13:12;;;;;;;10.50;5.10;;;;;;;8.07;100.00;96810.52;110138;1247;71347;-78
2022/09/30 02:15:47;;;;;;;11.90;6.00;;;;;;;8.04;100.00;96813.38;110231;1248;68647;-78
2022/09/30 02:18:21;;;;;;;9.90;5.30;;;;;;;8.02;100.00;96817.50;110215;1247;68823;-79
2022/09/30 02:20:56;;;;;;;9.70;5.30;;;;;;;8.00;100.00;96817.80;110338;1247;59763;-77
2022/09/30 02:23:31;;;;;;;5.40;3.90;;;;;;;7.97;100.00;96817.48;110372;1246;59680;-79
2022/09/30 02:26:09;;;;;;;8.70;4.90;;;;;;;7.95;100.00;96816.40;110439;1247;71581;-78
2022/09/30 02:28:44;;;;;;;5.40;3.90;;;;;;;7.93;100.00;96821.05;110399;1245;68467;-79
2022/09/30 02:31:14;;;;;;;8.40;5.30;;;;;;;7.92;100.00;96822.70;110339;1246;69205;-80
2022/09/30 02:34:09;;;;;;;10.10;4.90;;;;;;;7.93;100.00;96819.71;110625;1247;59679;-79
2022/09/30 02:36:44;;;;;;;7.00;5.00;;;;;;;7.91;100.00;96810.61;110412;1247;59685;-78
2022/09/30 02:39:31;;;;;;;7.30;3.80;;;;;;;7.95;100.00;96808.12;110452;1247;70633;-79
2022/09/30 02:42:10;;;;;;;17.40;4.70;;;;;;;7.96;100.00;96809.77;110306;1245;69293;-79
2022/09/30 02:44:38;;;;;;;13.50;4.90;;;;;;;8.00;100.00;96805.88;110235;1248;68506;-77
2022/09/30 02:47:30;;;;;;;12.10;5.50;;;;;;;8.03;100.00;96798.98;110336;1248;59760;-78
2022/09/30 02:50:24;;;;;;;9.80;4.60;;;;;;;8.06;100.00;96797.44;110504;1247;59695;-79
2022/09/30 02:53:26;;;;;;;15.70;5.10;;;;;;;8.07;100.00;96801.84;110413;1248;70772;-79
2022/09/30 02:56:07;;;;;;;13.50;4.60;;;;;;;8.08;100.00;96801.22;110250;1248;69315;-79
2022/09/30 02:58:39;;;;;;;6.70;4.90;;;;;;;8.09;100.00;96804.61;110240;1248;69318;-77
2022/09/30 03:01:11;;;;;;;7.00;3.90;;;;;;;8.08;100.00;96803.14;110271;1247;59664;-78
2022/09/30 03:03:56;;;;;;;5.10;3.20;;;;;;;8.07;100.00;96808.58;110332;1245;59703;-78
2022/09/30 03:06:25;;;;;;;29.00;7.00;;;;;;;8.07;100.00;96808.27;110423;1246;71457;-78
2022/09/30 03:08:53;;;;;;;5.60;4.50;;;;;;;8.02;100.00;96811.91;110424;1247;69301;-78
2022/09/30 03:11:24;;;;;;;4.10;2.70;;;;;;;7.99;100.00;96813.73;110379;1245;68850;-78
2022/09/30 03:14:35;;;;;;;5.10;4.10;;;;;;;7.96;100.00;96809.58;110297;1248;59726;-78
2022/09/30 03:17:45;;;;;;;6.60;4.50;;;;;;;7.94;100.00;96811.13;110275;1247;59669;-79
2022/09/30 03:20:30;;;;;;;6.10;4.30;;;;;;;7.91;100.00;96813.56;110210;1247;71750;-77
2022/09/30 03:23:03;;;;;;;73.50;9.60;;;;;;;7.91;100.00;96816.38;110498;1247;69437;-75
2022/09/30 03:25:44;;;;;;;50.90;7.60;;;;;;;7.88;100.00;96815.90;110581;1245;68724;-80
2022/09/30 03:28:25;;;;;;;113.10;12.70;;;;;;;7.80;100.00;96817.98;110511;1247;59731;-79
2022/09/30 03:31:22;;;;;;;7.80;5.60;;;;;;;7.74;100.00;96813.23;110625;1247;59757;-78
2022/09/30 03:34:12;;;;;;;11.20;5.30;;;;;;;7.70;100.00;96811.95;110531;1245;71450;-78
2022/09/30 03:37:02;;;;;;;34.90;7.60;;;;;;;7.66;100.00;96812.72;110515;1247;69378;-78
2022/09/30 03:39:50;;;;;;;18.70;6.20;;;;;;;7.64;100.00;96814.64;110453;1247;68580;-79
2022/09/30 03:42:27;;;;;;;8.40;6.00;;;;;;;7.61;100.00;96818.27;110675;1246;59676;-78
2022/09/30 03:45:05;;;;;;;7.80;5.50;;;;;;;7.60;100.00;96822.73;110532;1247;59621;-78
2022/09/30 03:47:39;;;;;;;7.30;4.70;;;;;;;7.58;100.00;96828.88;110431;1246;70678;-78
2022/09/30 03:50:10;;;;;;;9.10;6.10;;;;;;;7.58;100.00;96832.58;110277;1247;68687;-77
2022/09/30 03:52:38;;;;;;;8.70;6.60;;;;;;;7.57;100.00;96841.12;110383;1247;68654;-79
2022/09/30 03:55:08;;;;;;;7.00;5.00;;;;;;;7.56;100.00;96844.16;110611;1247;59690;-79
2022/09/30 03:57:37;;;;;;;8.00;5.20;;;;;;;7.52;100.00;96841.79;110698;1247;60107;-79
2022/09/30 04:00:06;;;;;;;8.80;5.90;;;;;;;7.50;100.00;96838.30;110922;1245;71450;-77
2022/09/30 04:02:36;;;;;;;7.20;5.30;;;;;;;7.47;100.00;96837.33;110475;1246;69352;-81
2022/09/30 04:05:04;;;;;;;6.50;4.80;;;;;;;7.43;100.00;96837.06;110459;1247;69216;-76
2022/09/30 04:07:32;;;;;;;9.40;6.20;;;;;;;7.40;100.00;96836.96;110530;1246;59731;-80
2022/09/30 04:10:00;;;;;;;10.50;6.10;;;;;;;7.37;100.00;96844.27;110997;1247;59670;-78
2022/09/30 04:12:27;;;;;;;6.20;3.80;;;;;;;7.35;100.00;96846.66;111514;1247;72130;-78
2022/09/30 04:14:55;;;;;;;8.40;4.60;;;;;;;7.34;100.00;96843.07;110564;1245;69446;-78
2022/09/30 04:17:23;;;;;;;6.60;3.90;;;;;;;7.36;100.00;96840.16;110426;1247;67992;-77
2022/09/30 04:19:50;;;;;;;5.50;4.40;;;;;;;7.37;100.00;96843.89;110554;1247;59691;-77
2022/09/30 04:22:17;;;;;;;7.40;4.70;;;;;;;7.37;100.00;96845.77;110420;1246;59680;-78
2022/09/30 04:24:48;;;;;;;7.40;4.10;;;;;;;7.36;100.00;96841.73;110511;1246;70676;-79
2022/09/30 04:27:16;;;;;;;5.70;4.00;;;;;;;7.34;100.00;96841.15;110391;1247;68631;-78
2022/09/30 04:29:43;;;;;;;7.50;5.10;;;;;;;7.33;100.00;96847.83;110380;1245;68775;-78
2022/09/30 04:32:11;;;;;;;7.60;5.00;;;;;;;7.33;100.00;96853.86;110590;1246;59744;-77
2022/09/30 04:34:39;;;;;;;8.50;4.90;;;;;;;7.33;100.00;96848.14;110463;1247;59692;-77
2022/09/30 04:37:06;;;;;;;6.40;4.40;;;;;;;7.33;100.00;96856.65;110613;1245;71517;-77
2022/09/30 04:39:37;;;;;;;7.20;5.60;;;;;;;7.35;100.00;96852.90;110397;1247;68518;-77
2022/09/30 04:42:05;;;;;;;10.40;5.60;;;;;;;7.35;100.00;96842.98;110549;1246;69361;-75
2022/09/30 04:44:34;;;;;;;8.00;5.10;;;;;;;7.36;100.00;96845.72;110518;1247;59738;-75
2022/09/30 04:47:02;;;;;;;8.80;5.10;;;;;;;7.38;100.00;96852.63;110349;1246;59622;-78
2022/09/30 04:49:30;;;;;;;7.90;3.90;;;;;;;7.43;100.00;96856.17;110370;1247;71543;-78
2022/09/30 04:51:58;;;;;;;11.50;4.00;;;;;;;7.47;100.00;96857.48;110636;1247;68519;-79
2022/09/30 04:54:25;;;;;;;6.30;4.00;;;;;;;7.49;100.00;96860.10;110471;1247;69405;-77
2022/09/30 04:56:53;;;;;;;18.40;7.20;;;;;;;7.51;100.00;96856.50;110536;1246;59715;-78
2022/09/30 04:59:21;;;;;;;12.80;5.60;;;;;;;7.51;100.00;96853.16;110473;1247;59742;-76
2022/09/30 05:01:49;;;;;;;8.50;5.80;;;;;;;7.54;100.00;96852.23;110185;1247;69633;-76
2022/09/30 05:04:16;;;;;;;11.60;7.00;;;;;;;7.63;100.00;96862.89;110547;1245;68852;-76
2022/09/30 05:06:44;;;;;;;13.00;7.60;;;;;;;7.81;100.00;96867.39;110492;1246;69353;-76
2022/09/30 05:09:11;;;;;;;13.60;8.40;;;;;;;8.07;100.00;96871.06;110300;1247;59746;-78
2022/09/30 05:11:41;;;;;;;10.60;6.00;;;;;;;8.34;100.00;96879.25;110227;1247;59786;-77
2022/09/30 05:14:09;;;;;;;10.50;6.50;;;;;;;8.65;100.00;96892.67;110359;1245;71427;-75
2022/09/30 05:16:36;;;;;;;10.20;6.90;;;;;;;8.90;100.00;96896.18;110432;1247;69292;-73
2022/09/30 05:19:04;;;;;;;12.60;7.60;;;;;;;9.23;100.00;96896.49;110442;1244;69210;-75
2022/09/30 05:21:32;;;;;;;12.90;8.80;;;;;;;9.58;100.00;96899.52;110469;1246;59756;-76
2022/09/30 05:23:59;;;;;;;8.70;7.80;;;;;;;9.87;100.00;96894.72;110399;1246;59665;-77
2022/09/30 05:26:27;;;;;;;7.60;6.90;;;;;;;10.00;100.00;96893.52;110373;1247;70478;-76
2022/09/30 05:28:54;;;;;;;9.10;6.30;;;;;;;10.20;100.00;96898.37;110401;1247;68759;-76
2022/09/30 05:31:22;;;;;;;7.60;6.40;;;;;;;10.37;100.00;96904.34;110490;1245;69583;-75
2022/09/30 05:33:54;;;;;;;;;;;;;;;10.63;100.00;96912.38;110419;1245;59750;-76
2022/09/30 05:36:25;;;;;;;8.00;6.00;;;;;;;10.90;99.93;96918.20;110414;1245;59605;-76
2022/09/30 05:38:55;;;;;;;5.90;4.40;;;;;;;11.12;97.91;96924.05;109791;1247;636038;-76
2022/09/30 05:41:23;;;;;;;4.70;4.00;;;;;;;11.48;99.74;96923.16;110425;1247;68535;-77
2022/09/30 05:43:50;;;;;;;4.90;4.40;;;;;;;11.86;98.12;96927.09;110506;1244;69307;-76
2022/09/30 05:46:19;;;;;;;5.10;4.10;;;;;;;12.13;93.23;96932.81;110339;1246;60187;-75
2022/09/30 05:48:46;;;;;;;5.50;4.00;;;;;;;12.36;90.95;96943.08;110369;1247;59709;-75
2022/09/30 05:51:14;;;;;;;5.40;4.60;;;;;;;12.55;90.01;96949.39;110460;1247;71479;-76
2022/09/30 05:53:42;;;;;;;4.80;4.30;;;;;;;12.79;88.71;96948.69;110390;1247;69969;-75
2022/09/30 05:56:10;;;;;;;6.50;4.60;;;;;;;12.94;87.87;96946.77;110423;1246;69463;-75
2022/09/30 05:58:39;;;;;;;4.90;4.20;;;;;;;13.17;87.94;96955.61;110088;1247;60217;-75
2022/09/30 06:01:14;;;;;;;4.90;4.30;;;;;;;13.29;88.32;96964.28;110253;1247;59665;-78
2022/09/30 06:03:44;;;;;;;4.80;4.20;;;;;;;13.23;87.46;96965.70;110514;1246;70792;-77
2022/09/30 06:06:13;;;;;;;6.60;4.90;;;;;;;13.29;88.82;96969.37;110455;1247;68751;-78
2022/09/30 06:08:42;;;;;;;4.40;4.00;;;;;;;13.43;91.34;96964.66;110378;1245;68848;-78
2022/09/30 06:11:11;;;;;;;4.50;3.30;;;;;;;13.54;92.96;96969.23;110514;1247;59683;-76
2022/09/30 06:13:40;;;;;;;5.80;3.90;;;;;;;13.60;90.56;96969.86;110480;1246;59684;-77
2022/09/30 06:16:10;;;;;;;4.20;3.40;;;;;;;13.73;90.57;96959.05;110546;1246;71524;-77
2022/09/30 06:18:40;;;;;;;4.90;4.30;;;;;;;14.07;90.25;96960.44;110381;1246;68545;-76
2022/09/30 06:21:11;;;;;;;6.70;5.60;;;;;;;14.19;84.52;96961.91;110416;1245;69335;-76
2022/09/30 06:23:40;;;;;;;5.80;4.40;;;;;;;14.08;83.64;96964.36;110396;1246;59657;-76
2022/09/30 06:26:10;;;;;;;9.50;6.00;;;;;;;13.94;84.34;96966.90;110300;1247;59711;-76
2022/09/30 06:28:38;;;;;;;5.30;4.80;;;;;;;14.06;84.70;96971.73;110147;1247;72288;-77
2022/09/30 06:31:07;;;;;;;6.60;5.10;;;;;;;13.97;84.34;96975.94;110341;1245;68610;-77
2022/09/30 06:33:34;;;;;;;7.20;4.30;;;;;;;13.96;84.92;96977.96;110471;1245;68866;-77
2022/09/30 06:36:03;;;;;;;6.20;5.10;;;;;;;14.15;85.09;96974.88;110222;1245;59774;-76
2022/09/30 06:38:32;;;;;;;6.60;4.50;;;;;;;14.49;84.53;96970.70;110300;1246;59736;-76
2022/09/30 06:41:03;;;;;;;5.80;4.60;;;;;;;14.98;83.59;96973.69;110355;1247;71547;-77
2022/09/30 06:43:30;;;;;;;6.50;5.40;;;;;;;15.54;82.44;96971.79;110514;1246;68969;-77
2022/09/30 06:46:17;;;;;;;5.50;4.80;;;;;;;16.06;80.39;96962.70;110292;1247;69460;-77
2022/09/30 06:48:57;;;;;;;4.30;3.80;;;;;;;16.74;80.33;96961.66;110453;1246;59702;-75
2022/09/30 06:51:40;;;;;;;3.90;3.50;;;;;;;17.48;76.44;96968.38;110344;1245;59721;-75
2022/09/30 06:54:08;;;;;;;4.30;3.30;;;;;;;18.08;74.22;96971.38;110288;1247;71618;-77
2022/09/30 06:56:36;;;;;;;3.40;2.60;;;;;;;18.61;73.95;96975.66;110294;1247;69976;-76
2022/09/30 06:59:03;;;;;;;3.40;2.20;;;;;;;18.89;67.21;96982.44;110305;1247;68677;-75
2022/09/30 07:01:31;;;;;;;2.80;1.70;;;;;;;19.26;68.77;96984.43;110129;1247;59742;-76
2022/09/30 07:04:06;;;;;;;3.60;2.20;;;;;;;19.25;65.20;96981.23;110441;1247;58541;-70
2022/09/30 07:06:34;;;;;;;3.30;2.00;;;;;;;19.06;64.33;96983.33;110438;1247;71008;-76
2022/09/30 07:09:02;;;;;;;2.30;2.10;;;;;;;19.02;64.79;96982.08;110537;1246;69572;-76
2022/09/30 07:11:30;;;;;;;2.40;1.60;;;;;;;19.30;64.49;96982.05;110462;1247;69457;-76
2022/09/30 07:13:57;;;;;;;3.40;1.80;;;;;;;19.85;64.35;96984.98;110486;1247;59745;-76
2022/09/30 07:16:24;;;;;;;2.50;1.70;;;;;;;20.17;63.87;96980.84;110841;1246;59761;-74
2022/09/30 07:18:52;;;;;;;1.90;1.70;;;;;;;20.63;61.38;96973.74;110335;1247;69813;-76
2022/09/30 07:21:20;;;;;;;2.80;2.30;;;;;;;20.48;59.41;96976.53;110511;1246;69981;-74
2022/09/30 07:23:47;;;;;;;3.30;2.30;;;;;;;20.73;61.14;96974.17;110542;1247;69489;-74
2022/09/30 07:26:19;;;;;;;2.30;1.80;;;;;;;21.06;59.34;96976.23;110511;1247;59725;-74
2022/09/30 07:28:48;;;;;;;2.20;1.90;;;;;;;21.48;59.02;96978.77;110336;1246;59675;-74
2022/09/30 07:31:21;;;;;;;4.90;2.10;;;;;;;21.59;58.55;96983.13;110574;1247;71082;-74
2022/09/30 07:34:06;;;;;;;2.90;1.80;;;;;;;21.73;58.22;96988.00;110312;1247;69424;-75
2022/09/30 07:36:37;;;;;;;3.40;1.40;;;;;;;21.45;58.15;96986.46;110676;1245;68928;-73
2022/09/30 07:39:08;;;;;;;3.30;2.00;;;;;;;21.96;57.76;96989.11;110394;1245;59682;-74
2022/09/30 07:41:38;;;;;;;3.00;1.50;;;;;;;22.18;56.87;96990.77;110303;1246;59710;-74
2022/09/30 07:44:11;;;;;;;2.30;1.60;;;;;;;22.38;57.71;96997.34;110644;1247;71419;-74
2022/09/30 07:46:47;;;;;;;2.40;1.40;;;;;;;22.24;55.42;97004.73;110438;1246;69310;-73
2022/09/30 07:49:24;;;;;;;2.40;1.70;;;;;;;21.93;55.88;97007.93;110405;1245;69386;-72
2022/09/30 07:51:55;;;;;;;2.50;1.80;;;;;;;21.80;56.28;97007.41;110355;1246;59683;-74
2022/09/30 07:54:27;;;;;;;5.80;2.10;;;;;;;21.50;57.62;97011.90;110528;1245;59680;-74
2022/09/30 07:56:55;;;;;;;3.70;1.60;;;;;;;21.37;58.52;97020.23;110399;1247;71411;-72
2022/09/30 07:59:39;;;;;;;2.90;1.70;;;;;;;21.08;58.65;97031.04;110228;1245;69625;-73
2022/09/30 08:02:14;;;;;;;2.80;1.90;;;;;;;20.51;59.91;97039.25;110456;1246;68612;-74
2022/09/30 08:04:42;;;;;;;5.20;2.60;;;;;;;20.19;60.93;97046.52;110125;1247;59759;-72
2022/09/30 08:07:13;;;;;;;2.70;2.00;;;;;;;19.86;62.61;97043.94;110385;1247;59655;-73
2022/09/30 08:09:41;;;;;;;3.00;2.10;;;;;;;19.40;64.20;97044.85;110222;1245;71411;-72
2022/09/30 08:12:09;;;;;;;3.70;2.50;;;;;;;19.26;64.71;97045.77;110150;1245;69534;-73
2022/09/30 08:14:36;;;;;;;2.90;2.00;;;;;;;18.93;66.13;97050.48;110405;1247;69420;-73
2022/09/30 08:17:04;;;;;;;4.10;2.40;;;;;;;18.67;67.97;97052.95;110101;1247;59737;-72
2022/09/30 08:19:32;;;;;;;4.90;2.30;;;;;;;18.51;68.17;97051.30;110463;1245;59677;-74
2022/09/30 08:22:00;;;;;;;3.00;2.20;;;;;;;18.33;70.17;97047.81;110590;1245;71504;-74
2022/09/30 08:24:31;;;;;;;4.20;2.30;;;;;;;18.14;71.40;97058.19;110515;1245;68423;-76
2022/09/30 08:26:58;;;;;;;3.60;2.20;;;;;;;18.13;71.24;97056.96;110481;1245;68368;-76
2022/09/30 08:29:25;;;;;;;3.30;2.10;;;;;;;18.21;71.05;97054.81;110362;1245;60133;-75
2022/09/30 08:32:13;;;;;;;4.70;2.30;;;;;;;18.37;70.49;97054.13;110436;1246;59689;-75
2022/09/30 08:34:40;;;;;;;3.10;2.60;;;;;;;18.79;68.51;97058.98;110230;1247;72777;-76
2022/09/30 08:37:09;;;;;;;4.40;2.70;;;;;;;18.93;65.70;97058.09;110208;1246;68979;-72
2022/09/30 08:39:37;;;;;;;3.00;2.40;;;;;;;19.13;66.35;97050.10;110411;1247;68852;-76
2022/09/30 08:42:33;;;;;;;3.60;2.00;;;;;;;19.30;64.56;97047.36;110407;1244;60119;-76
2022/09/30 08:45:12;;;;;;;2.80;2.00;;;;;;;19.53;63.96;97045.27;110267;1247;59755;-74
2022/09/30 08:47:42;;;;;;;2.90;1.90;;;;;;;19.82;65.44;97043.02;110410;1245;70767;-75
2022/09/30 08:50:31;;;;;;;4.20;1.60;;;;;;;20.27;62.94;97048.39;110343;1245;69167;-76
2022/09/30 08:53:06;;;;;;;2.00;1.40;;;;;;;20.65;62.72;97043.61;110195;1245;69413;-77
2022/09/30 08:55:42;;;;;;;2.10;1.40;;;;;;;21.10;60.33;97047.30;110400;1245;59718;-75
2022/09/30 08:58:16;;;;;;;1.40;1.20;;;;;;;21.59;59.94;97052.96;110430;1245;59690;-74
2022/09/30 09:00:44;;;;;;;3.50;1.50;;;;;;;21.93;56.99;97055.09;110229;1245;71765;-75
2022/09/30 09:03:13;;;;;;;2.90;1.40;;;;;;;22.41;55.77;97057.63;110385;1245;69721;-75
2022/09/30 09:05:46;;;;;;;2.60;1.50;;;;;;;22.89;55.35;97048.15;110454;1246;69371;-75
2022/09/30 09:08:31;;;;;;;2.00;1.40;;;;;;;23.35;55.81;97037.46;110162;1247;59761;-75
2022/09/30 09:11:29;;;;;;;1.90;1.40;;;;;;;23.64;52.53;97041.03;110214;1247;59705;-75
2022/09/30 09:14:33;;;;;;;2.60;1.60;;;;;;;24.19;50.44;97046.88;110090;1246;71473;-76
2022/09/30 09:17:26;;;;;;;2.50;1.20;;;;;;;24.44;49.61;97050.45;110226;1247;68870;-75
2022/09/30 09:20:22;;;;;;;2.50;1.50;;;;;;;24.68;48.41;97053.01;110096;1245;68741;-75
2022/09/30 09:22:51;;;;;;;1.90;1.10;;;;;;;25.82;47.05;97053.45;110256;1245;59757;-73
2022/09/30 09:25:26;;;;;;;4.60;1.50;;;;;;;25.98;44.87;97052.65;110344;1245;59592;-74
2022/09/30 09:27:59;;;;;;;2.90;1.40;;;;;;;26.57;44.19;97059.13;111086;1245;71324;-76
2022/09/30 09:30:45;;;;;;;2.40;1.70;;;;;;;26.81;44.09;97062.02;111297;1245;68753;-75
2022/09/30 09:33:25;;;;;;;1.60;1.00;;;;;;;27.25;42.97;97062.58;110680;1246;69290;-75
2022/09/30 09:36:24;;;;;;;3.60;1.20;;;;;;;27.63;40.26;97067.27;110626;1245;59677;-73
2022/09/30 09:39:12;;;;;;;2.60;1.80;;;;;;;27.36;40.93;97069.37;110227;1247;59669;-76
2022/09/30 09:42:06;;;;;;;3.50;1.50;;;;;;;26.89;40.41;97070.92;110163;1247;71427;-76
2022/09/30 09:44:56;;;;;;;2.10;1.50;;;;;;;25.72;42.42;97065.95;110269;1247;69018;-76
2022/09/30 09:47:23;;;;;;;2.50;1.90;;;;;;;24.65;44.70;97074.96;110088;1247;69467;-75
2022/09/30 09:49:59;;;;;;;3.70;1.60;;;;;;;24.29;45.97;97080.40;110222;1247;59769;-75
2022/09/30 09:52:55;;;;;;;2.90;1.60;;;;;;;23.54;47.64;97077.65;110228;1247;59757;-72
2022/09/30 09:55:23;;;;;;;2.80;1.70;;;;;;;23.01;50.04;97078.94;110073;1247;70723;-72
2022/09/30 09:58:10;;;;;;;3.00;1.80;;;;;;;22.97;49.95;97078.84;110145;1247;69490;-73
2022/09/30 10:03:25;;;;;;;2.50;1.50;;;;;;;23.28;49.41;97083.19;110243;1247;59742;-75
2022/09/30 10:06:05;;;;;;;4.40;1.60;;;;;;;23.58;48.96;97082.19;110246;1246;59657;-74
2022/09/30 10:08:37;;;;;;;2.60;1.30;;;;;;;23.91;48.55;97083.54;110199;1245;71340;-76
2022/09/30 10:11:20;;;;;;;2.20;1.50;;;;;;;24.00;47.10;97086.02;110290;1245;70007;-75
2022/09/30 10:13:49;;;;;;;1.90;1.50;;;;;;;23.70;48.24;97086.46;110372;1245;68505;-76
2022/09/30 10:16:36;;;;;;;2.10;1.60;;;;;;;23.74;48.02;97084.29;110290;1247;59667;-76
2022/09/30 10:19:20;;;;;;;3.10;1.60;;;;;;;23.63;48.77;97088.98;110447;1245;59689;-75
2022/09/30 10:21:48;;;;;;;2.40;1.70;;;;;;;23.68;48.22;97091.14;110425;1245;71130;-75
2022/09/30 10:24:26;;;;;;;2.10;1.30;;;;;;;23.69;48.07;97088.59;110279;1244;69350;-73
2022/09/30 10:26:54;;;;;;;3.70;3.10;;;;;;;23.64;47.58;97081.05;110386;1245;69261;-74
2022/09/30 10:29:35;;;;;;;1.80;1.40;;;;;;;23.44;48.23;97078.65;110226;1247;59741;-75
2022/09/30 10:32:06;;;;;;;2.70;1.50;;;;;;;24.14;48.30;97086.58;110412;1245;59747;-75
2022/09/30 10:34:43;;;;;;;2.90;1.30;;;;;;;25.06;46.78;97083.41;110550;1245;71510;-75
2022/09/30 10:37:14;;;;;;;2.40;1.20;;;;;;;25.66;44.09;97080.20;110102;1247;69453;-74
2022/09/30 10:39:49;;;;;;;2.60;1.40;;;;;;;26.37;42.90;97077.08;110242;1247;69983;-74
2022/09/30 10:42:19;;;;;;;2.00;1.50;;;;;;;27.25;41.66;97079.33;110175;1247;59782;-74
2022/09/30 10:45:03;;;;;;;1.80;1.60;;;;;;;27.75;40.24;97079.98;110086;1247;59684;-73
2022/09/30 10:47:32;;;;;;;1.50;1.10;;;;;;;28.20;38.93;97079.59;110173;1247;70753;-73
2022/09/30 10:50:07;;;;;;;1.50;1.10;;;;;;;28.70;37.79;97071.05;110097;1247;69719;-73
2022/09/30 10:52:43;;;;;;;1.60;1.00;;;;;;;29.41;36.36;97066.16;110226;1245;68751;-73
2022/09/30 10:55:19;;;;;;;1.70;0.80;;;;;;;29.61;36.59;97059.45;110440;1245;59604;-73
2022/09/30 10:57:49;;;;;;;2.00;1.30;;;;;;;29.03;35.85;97060.59;110518;1245;59690;-74
2022/09/30 11:00:20;;;;;;;8.10;6.70;;;;;;;29.15;36.17;97066.82;110225;1245;71591;-74
2022/09/30 11:02:57;;;;;;;2.50;1.50;;;;;;;28.78;36.66;97073.18;110152;1247;69317;-74
2022/09/30 11:05:43;;;;;;;4.40;3.60;;;;;;;28.81;35.80;97081.66;110215;1247;69918;-73
2022/09/30 11:08:28;;;;;;;2.00;1.10;;;;;;;29.31;36.27;97087.19;110256;1245;59732;-74
2022/09/30 11:11:22;;;;;;;1.60;1.20;;;;;;;28.74;36.31;97093.30;110388;1245;59653;-75
2022/09/30 11:14:03;;;;;;;3.00;2.20;;;;;;;28.11;36.81;97091.83;110406;1244;71310;-76
2022/09/30 11:16:48;;;;;;;2.90;2.30;;;;;;;28.55;35.29;97086.85;110552;1245;69374;-74
2022/09/30 11:19:22;;;;;;;6.20;4.80;;;;;;;27.72;35.79;97079.38;110397;1245;70044;-74
2022/09/30 11:21:56;;;;;;;4.80;3.40;;;;;;;26.96;37.60;97080.29;110398;1245;60125;-76
2022/09/30 11:24:39;;;;;;;4.10;2.40;;;;;;;26.35;38.53;97074.23;110482;1245;59753;-74
2022/09/30 11:27:21;;;;;;;2.10;1.20;;;;;;;25.71;40.42;97077.98;110584;1245;71565;-76
2022/09/30 11:30:06;;;;;;;2.40;1.60;;;;;;;25.70;41.26;97076.92;110353;1245;68616;-76
2022/09/30 11:32:52;;;;;;;3.50;1.80;;;;;;;25.59;41.29;97079.70;110441;1244;69446;-74
2022/09/30 11:35:43;;;;;;;4.00;2.80;;;;;;;25.23;42.16;97074.85;110478;1244;59692;-74
2022/09/30 11:38:19;;;;;;;1.30;1.20;;;;;;;25.89;41.90;97070.13;110540;1245;59732;-77
2022/09/30 11:41:05;;;;;;;1.50;1.20;;;;;;;26.55;40.92;97071.80;110442;1245;70675;-76
2022/09/30 11:43:56;;;;;;;1.60;1.10;;;;;;;27.20;39.64;97072.52;110551;1245;69651;-75
2022/09/30 11:46:24;;;;;;;8.10;4.90;;;;;;;27.82;38.78;97075.69;110528;1245;70034;-80
2022/09/30 11:49:09;;;;;;;3.50;2.20;;;;;;;28.08;38.55;97081.17;110356;1245;59700;-76
2022/09/30 11:51:51;;;;;;;4.30;3.30;;;;;;;28.42;38.24;97081.27;110471;1245;59741;-75
2022/09/30 11:54:21;;;;;;;7.20;5.70;;;;;;;28.36;35.96;97084.65;110430;1245;71007;-75
2022/09/30 11:56:48;;;;;;;2.50;1.10;;;;;;;28.12;36.05;97086.08;110311;1244;70066;-74
2022/09/30 11:59:23;;;;;;;2.20;1.10;;;;;;;28.09;35.67;97082.61;110397;1245;69981;-75
2022/09/30 12:01:54;;;;;;;1.80;1.10;;;;;;;28.30;35.68;97086.19;110502;1245;59603;-75
2022/09/30 12:04:38;;;;;;;1.60;1.00;;;;;;;28.10;34.55;97086.77;110329;1244;59689;-74
2022/09/30 12:07:20;;;;;;;2.30;0.80;;;;;;;28.19;34.04;97087.70;110508;1244;71412;-76